Time;durP1;ratioP1;P1;durP2;ratioP2;P2;SDS_P1;SDS_P2;PMS_P1;PMS_P2;Temp;Humidity;BMP_temperature;BMP_pressure;BME280_temperature;BME280_humidity;BME280_pressure;Samples;Min_cycle;Max_cycle;Signal;HPM_P1;HPM_P2
2021/04/17 00:01:30;;;;;;;23.40;13.98;;;;;;;9.50;79.32;99285.53;6306707;22;19995;-77
2021/04/17 00:03:56;;;;;;;20.63;13.50;;;;;;;9.49;79.92;99273.25;6306653;22;20000;-76
2021/04/17 00:06:22;;;;;;;20.88;13.25;;;;;;;9.40;80.09;99257.72;6306200;22;20006;-76
2021/04/17 00:08:47;;;;;;;20.58;14.32;;;;;;;9.49;80.11;99273.25;6306568;22;20007;-75
2021/04/17 00:11:13;;;;;;;21.75;14.18;;;;;;;9.49;80.32;99270.56;6306228;22;20007;-75
2021/04/17 00:13:39;;;;;;;22.73;14.43;;;;;;;9.47;80.53;99276.16;6306290;22;20003;-76
2021/04/17 00:16:05;;;;;;;29.10;14.82;;;;;;;9.43;80.44;99267.88;6307152;22;20010;-77
2021/04/17 00:18:31;;;;;;;24.33;14.90;;;;;;;9.42;81.28;99254.78;6305556;22;20011;-77
2021/04/17 00:20:56;;;;;;;23.83;14.52;;;;;;;9.42;81.40;99265.47;6307514;22;20045;-77
2021/04/17 00:23:22;;;;;;;23.15;13.55;;;;;;;9.38;81.09;99264.41;6306482;22;20297;-76
2021/04/17 00:25:47;;;;;;;20.60;13.35;;;;;;;9.30;81.75;99263.03;6306350;22;20030;-75
2021/04/17 00:28:12;;;;;;;26.98;15.05;;;;;;;9.24;81.64;99269.41;6305460;22;19999;-75
2021/04/17 00:30:38;;;;;;;22.35;13.70;;;;;;;9.17;82.03;99263.50;6305740;22;20302;-75
2021/04/17 00:33:03;;;;;;;22.08;14.13;;;;;;;9.16;82.07;99269.94;6305475;22;20524;-75
2021/04/17 00:35:29;;;;;;;25.20;13.85;;;;;;;9.12;81.91;99266.97;6305771;22;20006;-76
2021/04/17 00:37:54;;;;;;;22.88;13.68;;;;;;;9.13;81.92;99269.38;6305371;22;20003;-75
2021/04/17 00:40:20;;;;;;;24.73;14.35;;;;;;;9.11;82.10;99276.84;6304858;22;20332;-75
2021/04/17 00:42:45;;;;;;;24.75;16.25;;;;;;;9.09;82.24;99267.50;6305306;22;20392;-75
2021/04/17 00:45:11;;;;;;;25.73;15.65;;;;;;;9.11;81.68;99257.38;6305943;22;20004;-75
2021/04/17 00:47:37;;;;;;;24.65;14.80;;;;;;;9.09;82.18;99257.63;6305522;22;19999;-75
2021/04/17 00:50:03;;;;;;;25.48;15.25;;;;;;;9.09;82.15;99259.50;6305258;22;20059;-75
2021/04/17 00:52:29;;;;;;;25.05;14.75;;;;;;;9.10;81.97;99264.56;6305440;22;20007;-76
2021/04/17 00:54:54;;;;;;;23.13;13.52;;;;;;;9.12;81.39;99261.66;6304089;22;20003;-76
2021/04/17 00:57:20;;;;;;;28.00;15.05;;;;;;;9.10;81.54;99258.44;6305621;22;20030;-77
2021/04/17 00:59:46;;;;;;;20.27;13.15;;;;;;;9.05;81.17;99253.06;6276795;22;20424;-76
2021/04/17 01:02:14;;;;;;;21.50;13.93;;;;;;;9.04;81.27;99254.94;6306959;22;19999;-77
2021/04/17 01:04:43;;;;;;;23.85;13.82;;;;;;;9.00;80.84;99248.53;6306191;22;20486;-77
2021/04/17 01:07:19;;;;;;;25.20;15.07;;;;;;;8.98;81.78;99247.97;6306254;22;20085;-76
2021/04/17 01:09:55;;;;;;;22.35;14.32;;;;;;;8.96;81.92;99253.56;6305356;22;20294;-76
2021/04/17 01:12:27;;;;;;;22.08;13.35;;;;;;;8.98;81.50;99247.97;6305370;22;20010;-75
2021/04/17 01:14:53;;;;;;;22.02;13.73;;;;;;;8.97;81.45;99249.03;6306515;22;20030;-77
2021/04/17 01:17:20;;;;;;;21.25;12.55;;;;;;;8.95;81.12;99243.16;6305704;22;20065;-77
2021/04/17 01:19:54;;;;;;;21.73;13.85;;;;;;;8.94;81.02;99239.69;6306519;22;19999;-76
2021/04/17 01:22:25;;;;;;;21.38;13.18;;;;;;;8.92;81.31;99244.50;6305026;22;19999;-76
2021/04/17 01:25:03;;;;;;;22.15;15.60;;;;;;;8.93;81.34;99238.06;6306552;22;20003;-76
2021/04/17 01:27:29;;;;;;;;;;;;;;;8.92;81.07;99233.00;6305603;22;20102;-76
2021/04/17 01:29:55;;;;;;;23.35;14.55;;;;;;;8.83;81.12;99226.56;6279208;22;20309;-76
2021/04/17 01:32:21;;;;;;;24.52;14.45;;;;;;;8.73;81.12;99222.00;6277377;22;20007;-75
2021/04/17 01:34:47;;;;;;;23.42;14.02;;;;;;;8.72;81.48;99231.06;6305662;22;20419;-76
2021/04/17 01:37:13;;;;;;;21.42;14.32;;;;;;;8.71;81.90;99227.56;6305392;22;20412;-75
2021/04/17 01:39:41;;;;;;;21.02;14.00;;;;;;;8.67;81.80;99234.50;6305771;22;20025;-76
2021/04/17 01:42:10;;;;;;;26.38;15.10;;;;;;;8.69;81.60;99239.56;6308278;22;20485;-78
2021/04/17 01:44:41;;;;;;;24.70;14.05;;;;;;;8.67;82.16;99239.00;6306278;22;20003;-76
2021/04/17 01:47:12;;;;;;;22.60;14.63;;;;;;;8.70;81.85;99235.84;6307494;22;20026;-76
2021/04/17 01:49:42;;;;;;;26.17;15.55;;;;;;;8.72;81.71;99245.19;6278934;22;20452;-77
2021/04/17 01:52:13;;;;;;;25.23;14.25;;;;;;;8.74;81.70;99253.72;6304167;22;20006;-76
2021/04/17 01:54:46;;;;;;;18.35;13.05;;;;;;;8.76;81.40;99262.28;6305186;22;20328;-76
2021/04/17 01:57:20;;;;;;;22.33;14.20;;;;;;;8.75;81.43;99250.00;6305162;22;20010;-75
2021/04/17 01:59:47;;;;;;;27.48;14.73;;;;;;;8.76;81.17;99248.94;6305834;22;20328;-77
2021/04/17 02:02:14;;;;;;;22.33;13.30;;;;;;;8.75;81.32;99247.34;6305975;22;20014;-76
2021/04/17 02:04:40;;;;;;;26.42;15.68;;;;;;;8.72;81.80;99245.19;6303900;22;20091;-76
2021/04/17 02:07:05;;;;;;;23.63;13.32;;;;;;;8.71;81.88;99254.22;6305317;22;20386;-76
2021/04/17 02:09:30;;;;;;;24.38;15.48;;;;;;;8.70;81.71;99249.16;6278824;22;20432;-77
2021/04/17 02:11:56;;;;;;;25.60;13.88;;;;;;;8.70;82.13;99243.84;6306745;22;20070;-75
2021/04/17 02:14:22;;;;;;;25.10;14.43;;;;;;;8.74;82.08;99247.59;6304761;22;20034;-74
2021/04/17 02:16:52;;;;;;;24.50;14.20;;;;;;;8.78;81.96;99251.34;6304969;22;20009;-74
2021/04/17 02:19:43;;;;;;;24.45;14.43;;;;;;;8.77;82.05;99250.53;6304912;22;19999;-74
2021/04/17 02:22:09;;;;;;;22.98;14.02;;;;;;;8.83;81.08;99259.38;6303448;22;20004;-75
2021/04/17 02:24:35;;;;;;;23.83;14.25;;;;;;;8.81;80.83;99256.97;6305023;22;20070;-76
2021/04/17 02:27:01;;;;;;;19.83;12.93;;;;;;;8.86;80.87;99250.88;6305603;22;19999;-75
2021/04/17 02:29:26;;;;;;;21.48;12.40;;;;;;;8.87;80.54;99243.66;6304489;22;20010;-76
2021/04/17 02:31:52;;;;;;;20.27;12.35;;;;;;;8.87;80.50;99243.66;6303784;22;19997;-76
2021/04/17 02:34:18;;;;;;;18.85;12.80;;;;;;;8.87;80.27;99252.44;6305464;22;20007;-76
2021/04/17 02:36:44;;;;;;;21.33;12.63;;;;;;;8.83;80.38;99239.91;6304446;22;19999;-75
2021/04/17 02:39:09;;;;;;;18.10;12.25;;;;;;;8.77;81.08;99233.75;6305365;22;20313;-76
2021/04/17 02:41:35;;;;;;;21.75;12.65;;;;;;;8.69;80.64;99232.38;6306069;22;19995;-76
2021/04/17 02:44:00;;;;;;;22.35;15.85;;;;;;;8.64;80.71;99235.00;6279066;22;20390;-76
2021/04/17 02:46:26;;;;;;;24.95;13.77;;;;;;;8.62;80.83;99229.94;6278708;22;20383;-76
2021/04/17 02:48:52;;;;;;;20.48;12.65;;;;;;;8.59;81.18;99224.31;6278282;22;19999;-76
2021/04/17 02:51:18;;;;;;;18.30;12.13;;;;;;;8.56;81.74;99227.50;6306024;22;19995;-76
2021/04/17 02:53:43;;;;;;;19.02;12.82;;;;;;;8.53;81.33;99238.66;6306757;22;20725;-76
2021/04/17 02:56:08;;;;;;;22.63;12.20;;;;;;;8.46;81.98;99238.88;6281668;22;20002;-77
2021/04/17 02:58:34;;;;;;;22.17;13.25;;;;;;;8.44;82.11;99244.44;6278960;22;20085;-76
2021/04/17 03:01:01;;;;;;;19.38;12.80;;;;;;;8.38;82.51;99242.81;6305716;22;20092;-76
2021/04/17 03:03:27;;;;;;;18.08;11.88;;;;;;;8.34;83.15;99241.72;6305366;22;20005;-76
2021/04/17 03:05:52;;;;;;;22.95;13.90;;;;;;;8.29;83.58;99231.03;6305506;22;20074;-76
2021/04/17 03:08:18;;;;;;;19.38;12.27;;;;;;;8.24;83.94;99236.31;6304608;22;20017;-76
2021/04/17 03:10:43;;;;;;;20.63;11.13;;;;;;;8.20;83.94;99233.34;6305453;22;20399;-76
2021/04/17 03:13:09;;;;;;;18.88;11.75;;;;;;;8.14;84.43;99229.88;6306828;22;20070;-76
2021/04/17 03:15:35;;;;;;;21.25;11.40;;;;;;;8.06;84.61;99225.00;6307724;22;20014;-76
2021/04/17 03:18:01;;;;;;;19.35;11.07;;;;;;;8.02;84.91;99224.72;6306363;22;20054;-75
2021/04/17 03:20:27;;;;;;;17.45;10.70;;;;;;;8.00;84.94;99210.03;6307186;22;20000;-76
2021/04/17 03:22:53;;;;;;;18.40;10.65;;;;;;;8.00;85.65;99210.03;6307339;22;20003;-77
2021/04/17 03:25:18;;;;;;;17.88;9.45;;;;;;;8.04;85.92;99215.66;6282219;22;20003;-78
2021/04/17 03:27:44;;;;;;;11.82;7.60;;;;;;;8.00;85.10;99216.16;6308783;22;20072;-78
2021/04/17 03:30:14;;;;;;;17.30;9.07;;;;;;;8.00;85.03;99216.16;6309701;22;20079;-77
2021/04/17 03:32:39;;;;;;;12.40;8.00;;;;;;;7.98;85.28;99207.63;6305480;22;20011;-76
2021/04/17 03:35:07;;;;;;;15.57;9.57;;;;;;;7.99;85.49;99219.09;6282192;22;20027;-76
2021/04/17 03:37:32;;;;;;;15.13;9.55;;;;;;;7.98;85.52;99212.16;6281600;22;19998;-76
2021/04/17 03:39:58;;;;;;;17.80;10.98;;;;;;;7.95;85.08;99218.00;6309372;22;19996;-76
2021/04/17 03:42:23;;;;;;;18.45;10.18;;;;;;;7.95;85.82;99228.66;6308867;22;20006;-78
2021/04/17 03:44:49;;;;;;;16.38;9.70;;;;;;;7.98;85.62;99239.59;6279349;22;20360;-76
2021/04/17 03:47:14;;;;;;;14.85;9.65;;;;;;;7.97;85.04;99240.66;6306557;22;19999;-76
2021/04/17 03:49:40;;;;;;;14.95;10.27;;;;;;;8.00;86.00;99253.44;6305570;22;19995;-72
2021/04/17 03:52:05;;;;;;;15.85;9.65;;;;;;;8.02;85.75;99253.22;6306207;22;20236;-75
2021/04/17 03:54:31;;;;;;;17.65;9.95;;;;;;;8.06;85.52;99254.31;6306069;22;20132;-75
2021/04/17 03:56:56;;;;;;;16.50;10.18;;;;;;;8.06;85.67;99259.63;6306174;22;20331;-75
2021/04/17 03:59:22;;;;;;;16.05;10.25;;;;;;;8.05;85.85;99250.03;6305721;22;19995;-75
2021/04/17 04:01:47;;;;;;;17.80;10.75;;;;;;;8.06;85.65;99248.97;6304293;22;20333;-73
2021/04/17 04:04:13;;;;;;;18.55;11.27;;;;;;;8.05;84.80;99255.34;6306002;22;20003;-74
2021/04/17 04:06:39;;;;;;;15.93;10.43;;;;;;;8.04;84.94;99248.41;6308149;22;20001;-76
2021/04/17 04:09:05;;;;;;;15.60;10.68;;;;;;;8.06;85.02;99254.31;6280576;22;19999;-75
2021/04/17 04:11:31;;;;;;;18.27;11.75;;;;;;;8.05;84.08;99250.03;6306862;22;20038;-76
2021/04/17 04:13:56;;;;;;;17.58;11.75;;;;;;;8.06;84.67;99250.84;6307315;22;20074;-76
2021/04/17 04:16:22;;;;;;;18.90;12.70;;;;;;;8.01;84.92;99239.06;6306244;22;20002;-76
2021/04/17 04:18:47;;;;;;;19.92;13.52;;;;;;;8.05;84.56;99247.38;6305063;22;20137;-75
2021/04/17 04:21:12;;;;;;;20.35;13.00;;;;;;;8.09;84.84;99242.34;6307133;22;20490;-77
2021/04/17 04:23:38;;;;;;;20.92;12.45;;;;;;;8.08;84.45;99240.72;6305538;22;20038;-77
2021/04/17 04:26:04;;;;;;;22.08;13.93;;;;;;;8.09;84.53;99231.69;6279286;22;19999;-76
2021/04/17 04:28:30;;;;;;;23.40;12.88;;;;;;;8.12;84.39;99237.31;6305849;22;20546;-75
2021/04/17 04:30:56;;;;;;;22.10;13.60;;;;;;;8.15;84.23;99228.00;6306283;22;20000;-78
2021/04/17 04:33:21;;;;;;;23.77;14.77;;;;;;;8.15;84.15;99228.81;6307382;22;20559;-78
2021/04/17 04:35:47;;;;;;;24.70;14.07;;;;;;;8.16;84.75;99225.06;6308890;22;20006;-79
2021/04/17 04:38:12;;;;;;;25.27;13.73;;;;;;;8.14;84.70;99235.19;6306409;22;19996;-78
2021/04/17 04:40:38;;;;;;;27.33;14.35;;;;;;;8.14;84.89;99234.38;6280091;22;19999;-77
2021/04/17 04:43:03;;;;;;;22.48;13.27;;;;;;;8.13;84.98;99230.91;6280450;22;19995;-78
2021/04/17 04:45:29;;;;;;;24.83;14.82;;;;;;;8.15;85.58;99233.31;6305772;22;20310;-77
2021/04/17 04:47:54;;;;;;;21.88;13.38;;;;;;;8.15;85.60;99233.31;6280872;22;20444;-77
2021/04/17 04:50:19;;;;;;;24.48;13.85;;;;;;;8.12;85.46;99242.63;6308393;22;20447;-77
2021/04/17 04:52:45;;;;;;;23.55;14.52;;;;;;;8.10;85.65;99234.06;6310016;22;20061;-77
2021/04/17 04:55:11;;;;;;;25.17;14.30;;;;;;;8.10;86.12;99235.94;6318543;22;20007;-78
2021/04/17 04:57:36;;;;;;;24.50;13.40;;;;;;;8.08;86.47;99235.41;6308405;22;19999;-78
2021/04/17 05:00:04;;;;;;;27.63;14.82;;;;;;;8.09;86.14;99250.31;6308320;22;20000;-78
2021/04/17 05:02:29;;;;;;;22.30;13.65;;;;;;;8.08;86.56;99256.69;6308517;22;19999;-78
2021/04/17 05:04:54;;;;;;;24.52;15.10;;;;;;;8.05;86.22;99258.03;6281569;22;20015;-78
2021/04/17 05:07:20;;;;;;;25.45;15.05;;;;;;;8.10;86.60;99262.59;6282395;22;20007;-78
2021/04/17 05:09:45;;;;;;;25.90;13.20;;;;;;;8.12;85.76;99268.47;6305023;22;19995;-77
2021/04/17 05:12:11;;;;;;;21.13;13.18;;;;;;;8.12;85.63;99265.81;6280570;22;20003;-77
2021/04/17 05:14:37;;;;;;;20.58;14.77;;;;;;;8.13;85.65;99270.06;6308584;22;19999;-77
2021/04/17 05:17:02;;;;;;;19.50;13.30;;;;;;;8.14;85.69;99274.34;6279808;22;20007;-75
2021/04/17 05:19:27;;;;;;;20.15;12.73;;;;;;;8.17;86.10;99277.28;6302748;22;20026;-74
2021/04/17 05:21:53;;;;;;;20.35;14.18;;;;;;;8.15;86.06;99268.78;6302630;22;20418;-76
2021/04/17 05:24:18;;;;;;;22.80;14.68;;;;;;;8.18;85.95;99281.56;6306073;22;19999;-78
2021/04/17 05:26:44;;;;;;;23.05;13.77;;;;;;;8.18;85.65;99272.78;6306335;22;20007;-75
2021/04/17 05:29:09;;;;;;;22.92;13.50;;;;;;;8.22;85.65;99283.75;6305976;22;20006;-77
2021/04/17 05:31:35;;;;;;;20.58;13.68;;;;;;;8.21;85.67;99276.81;6282828;22;20006;-76
2021/04/17 05:34:02;;;;;;;23.98;14.02;;;;;;;8.18;85.95;99262.91;6305077;22;20015;-79
2021/04/17 05:36:27;;;;;;;24.00;13.98;;;;;;;8.21;84.97;99268.81;6307063;22;20078;-79
2021/04/17 05:38:53;;;;;;;23.60;14.98;;;;;;;8.19;85.74;99258.41;6305999;22;20010;-78
2021/04/17 05:41:19;;;;;;;19.23;12.75;;;;;;;8.18;85.36;99254.94;6305403;22;19999;-78
2021/04/17 05:43:45;;;;;;;22.13;13.95;;;;;;;8.17;85.43;99249.88;6305706;22;19995;-78
2021/04/17 05:46:11;;;;;;;18.08;12.05;;;;;;;8.16;85.52;99246.38;6304340;22;20005;-76
2021/04/17 05:48:40;;;;;;;18.63;12.75;;;;;;;8.16;85.59;99241.06;6305591;22;20056;-81
2021/04/17 05:51:56;;;;;;;21.70;12.15;;;;;;;8.17;85.96;99233.88;6235029;22;20002;-81
2021/04/17 05:57:43;;;;;;;18.40;11.77;;;;;;;8.17;85.21;99231.22;6326247;22;20014;-79
2021/04/17 06:00:10;;;;;;;18.90;13.00;;;;;;;8.15;85.62;99228.00;6279156;22;19991;-77
2021/04/17 06:02:36;;;;;;;19.67;11.50;;;;;;;8.09;85.60;99221.84;6307400;22;20002;-79
2021/04/17 06:05:01;;;;;;;19.90;12.50;;;;;;;8.07;86.12;99221.28;6304733;22;20074;-78
2021/04/17 06:07:27;;;;;;;21.05;12.85;;;;;;;8.06;86.32;99219.69;6279377;22;19995;-78
2021/04/17 06:09:52;;;;;;;19.05;12.60;;;;;;;8.02;86.05;99211.38;6306561;22;20007;-77
2021/04/17 06:12:18;;;;;;;19.17;12.35;;;;;;;8.05;85.89;99207.41;6306787;22;20412;-75
2021/04/17 06:14:43;;;;;;;18.88;12.55;;;;;;;8.13;86.33;99225.59;6305672;22;20075;-75
2021/04/17 06:17:09;;;;;;;17.83;11.80;;;;;;;8.15;86.16;99218.16;6306361;22;20048;-76
2021/04/17 06:19:34;;;;;;;17.35;11.75;;;;;;;8.24;85.67;99220.31;6302423;22;19999;-74
2021/04/17 06:21:59;;;;;;;19.38;11.32;;;;;;;8.27;85.66;99219.81;6301506;22;20309;-77
2021/04/17 06:24:25;;;;;;;16.73;11.50;;;;;;;8.33;85.31;99210.81;6305050;22;19995;-74
2021/04/17 06:26:50;;;;;;;16.85;11.02;;;;;;;8.42;84.62;99213.78;6304402;22;19999;-75
2021/04/17 06:29:16;;;;;;;19.02;11.23;;;;;;;8.46;84.31;99215.72;6303955;22;20002;-77
2021/04/17 06:31:41;;;;;;;18.38;11.45;;;;;;;8.52;84.75;99208.56;6277053;22;20026;-76
2021/04/17 06:34:07;;;;;;;15.13;9.70;;;;;;;8.55;84.29;99205.38;6302812;22;20337;-77
2021/04/17 06:36:33;;;;;;;15.90;10.98;;;;;;;8.55;84.74;99199.25;6302091;22;19995;-77
2021/04/17 06:38:58;;;;;;;15.85;10.30;;;;;;;8.56;83.71;99200.84;6277483;22;20099;-78
2021/04/17 06:41:26;;;;;;;13.90;8.80;;;;;;;8.56;83.80;99200.84;6304239;22;20114;-76
2021/04/17 06:43:53;;;;;;;18.00;10.57;;;;;;;8.55;83.92;99188.56;6303496;22;20003;-76
2021/04/17 06:46:20;;;;;;;14.77;8.77;;;;;;;8.57;83.47;99200.59;6303702;22;20003;-75
2021/04/17 06:48:47;;;;;;;10.80;7.53;;;;;;;8.60;83.28;99207.25;6278665;22;20027;-76
2021/04/17 06:51:15;;;;;;;17.33;9.80;;;;;;;8.68;83.41;99209.44;6305548;22;20026;-75
2021/04/17 06:53:41;;;;;;;16.48;8.90;;;;;;;8.69;83.21;99204.91;6307056;22;20328;-76
2021/04/17 06:56:08;;;;;;;11.90;8.20;;;;;;;8.75;82.45;99206.53;6281161;22;20003;-77
2021/04/17 06:58:35;;;;;;;9.55;7.57;;;;;;;8.74;81.04;99208.41;6279904;22;20329;-77
2021/04/17 07:01:00;;;;;;;10.02;7.20;;;;;;;8.78;81.45;99208.69;6305606;22;20328;-77
2021/04/17 07:03:26;;;;;;;10.02;7.30;;;;;;;8.84;81.83;99206.81;6305373;22;20003;-76
2021/04/17 07:05:51;;;;;;;10.68;7.22;;;;;;;8.87;81.25;99209.78;6305753;22;20082;-77
2021/04/17 07:08:17;;;;;;;10.68;7.43;;;;;;;8.92;81.43;99196.47;6281336;22;19999;-76
2021/04/17 07:10:43;;;;;;;10.88;7.63;;;;;;;9.06;81.19;99212.00;6307683;22;20323;-75
2021/04/17 07:13:14;;;;;;;11.10;6.78;;;;;;;9.12;80.06;99206.41;6308453;22;19999;-77
2021/04/17 07:15:41;;;;;;;11.23;7.57;;;;;;;9.15;79.44;99204.28;6279588;22;20439;-78
2021/04/17 07:18:34;;;;;;;8.17;6.77;;;;;;;9.19;80.43;99213.38;6307093;22;19999;-78
2021/04/17 07:21:43;;;;;;;12.05;8.00;;;;;;;9.24;80.62;99200.03;6304616;22;20088;-82
2021/04/17 07:25:12;;;;;;;10.00;6.90;;;;;;;9.26;79.26;99203.25;6281564;22;20339;-80
2021/04/17 07:28:09;;;;;;;7.78;6.82;;;;;;;9.23;78.67;99204.56;6283903;22;20482;-79
2021/04/17 07:30:43;;;;;;;14.07;7.35;;;;;;;9.23;78.45;99204.56;6289619;22;19995;-81
2021/04/17 07:33:15;;;;;;;7.75;5.57;;;;;;;9.26;78.50;99205.91;6312896;22;20108;-79
2021/04/17 07:35:46;;;;;;;10.50;7.32;;;;;;;9.24;77.96;99205.38;6287011;22;20009;-78
2021/04/17 07:38:24;;;;;;;9.18;6.63;;;;;;;9.28;78.13;99209.13;6280514;22;19999;-76
2021/04/17 07:41:06;;;;;;;8.65;6.28;;;;;;;9.32;78.21;99199.53;6305140;22;20455;-78
2021/04/17 07:43:51;;;;;;;7.65;6.22;;;;;;;9.33;77.66;99200.34;6308194;22;19995;-80
2021/04/17 07:46:28;;;;;;;10.90;5.85;;;;;;;9.34;76.89;99205.41;6307030;22;19995;-75
2021/04/17 07:49:19;;;;;;;9.43;5.82;;;;;;;9.39;76.81;99193.94;6279091;22;20492;-79
2021/04/17 07:51:58;;;;;;;9.68;5.43;;;;;;;9.39;77.08;99196.63;6280941;22;20305;-78
2021/04/17 07:54:24;;;;;;;8.82;5.95;;;;;;;9.40;76.89;99200.88;6279603;22;20060;-77
2021/04/17 07:56:49;;;;;;;8.10;6.15;;;;;;;9.42;76.99;99199.56;6280199;22;20532;-79
2021/04/17 07:59:20;;;;;;;9.82;5.85;;;;;;;9.45;76.18;99199.00;6306892;22;20003;-77
2021/04/17 08:01:45;;;;;;;6.80;5.75;;;;;;;9.44;76.28;99192.06;6279221;22;20060;-78
2021/04/17 08:04:11;;;;;;;8.43;6.40;;;;;;;9.48;76.71;99191.56;6280705;22;20011;-78
2021/04/17 08:06:37;;;;;;;7.68;5.75;;;;;;;9.46;75.81;99191.81;6304599;22;20006;-79
2021/04/17 08:09:03;;;;;;;7.28;5.90;;;;;;;9.45;76.52;99188.34;6306964;22;20372;-78
2021/04/17 08:11:30;;;;;;;8.85;6.05;;;;;;;9.49;76.18;99185.94;6280804;22;19999;-78
2021/04/17 08:13:57;;;;;;;7.30;5.65;;;;;;;9.45;75.32;99185.66;6306942;22;20321;-78
2021/04/17 08:16:23;;;;;;;8.75;6.07;;;;;;;9.46;75.40;99178.47;6280876;22;20320;-78
2021/04/17 08:18:48;;;;;;;7.05;5.75;;;;;;;9.48;74.71;99176.31;6280986;22;20082;-78
2021/04/17 08:21:17;;;;;;;7.07;5.15;;;;;;;9.47;74.73;99172.03;6306628;22;20057;-77
2021/04/17 08:23:45;;;;;;;8.02;6.60;;;;;;;9.49;74.54;99175.25;6282179;22;20003;-77
2021/04/17 08:26:11;;;;;;;10.10;6.30;;;;;;;9.51;74.12;99165.13;6308601;22;20038;-78
2021/04/17 08:28:54;;;;;;;8.18;5.47;;;;;;;9.53;73.89;99165.66;6282341;22;20056;-78
2021/04/17 08:31:31;;;;;;;9.77;6.47;;;;;;;9.59;74.11;99169.13;6282528;22;19999;-78
2021/04/17 08:34:11;;;;;;;8.25;6.30;;;;;;;9.68;73.92;99159.53;6304071;22;20004;-78
2021/04/17 08:36:48;;;;;;;8.68;6.93;;;;;;;9.76;73.53;99166.19;6280935;22;20006;-78
2021/04/17 08:39:40;;;;;;;7.28;6.10;;;;;;;9.86;72.40;99154.72;6304886;22;20336;-78
2021/04/17 08:42:30;;;;;;;6.68;5.55;;;;;;;9.96;73.02;99148.56;6306797;22;20013;-78
2021/04/17 08:45:08;;;;;;;7.35;5.28;;;;;;;10.01;71.26;99146.69;6304505;22;20007;-78
2021/04/17 08:47:46;;;;;;;8.73;5.28;;;;;;;10.07;71.09;99140.25;6278653;22;20023;-78
2021/04/17 08:50:24;;;;;;;5.13;4.63;;;;;;;10.18;70.73;99150.91;6280142;22;20086;-78
2021/04/17 08:53:13;;;;;;;5.43;4.93;;;;;;;10.21;70.13;99140.50;6306339;22;20313;-78
2021/04/17 08:55:38;;;;;;;6.13;4.90;;;;;;;10.23;69.03;99140.25;6279856;22;20014;-78
2021/04/17 08:58:25;;;;;;;6.70;5.32;;;;;;;10.29;70.05;99135.66;6304677;22;20336;-79
2021/04/17 09:00:50;;;;;;;6.20;4.82;;;;;;;10.33;69.97;99124.16;6278295;22;20026;-78
2021/04/17 09:03:35;;;;;;;8.18;5.55;;;;;;;10.32;69.72;99133.25;6304405;22;20407;-78
2021/04/17 09:06:01;;;;;;;8.93;4.45;;;;;;;10.30;69.09;99119.38;6278474;22;20007;-78
2021/04/17 09:08:26;;;;;;;7.75;5.45;;;;;;;10.33;69.27;99120.69;6304899;22;20056;-78
2021/04/17 09:10:53;;;;;;;6.20;5.07;;;;;;;10.36;69.19;99126.34;6306077;22;20306;-78
2021/04/17 09:13:20;;;;;;;7.32;5.57;;;;;;;10.37;68.88;99125.22;6278782;22;20039;-78
2021/04/17 09:15:53;;;;;;;6.53;5.05;;;;;;;10.36;69.24;99102.28;6306216;22;19999;-78
2021/04/17 09:18:37;;;;;;;8.13;5.35;;;;;;;10.37;69.60;99105.72;6306514;22;20010;-77
2021/04/17 09:21:09;;;;;;;6.90;4.85;;;;;;;10.35;69.58;99103.31;6305191;22;20021;-78
2021/04/17 09:23:45;;;;;;;7.57;5.53;;;;;;;10.34;69.64;99103.56;6306493;22;20087;-76
2021/04/17 09:26:34;;;;;;;4.60;4.20;;;;;;;10.29;68.60;99095.56;6279803;22;20000;-77
2021/04/17 09:29:04;;;;;;;5.28;4.78;;;;;;;10.25;67.49;99101.47;6307497;22;20472;-77
2021/04/17 09:31:38;;;;;;;5.45;4.45;;;;;;;10.23;67.19;99084.13;6306917;22;19995;-77
2021/04/17 09:34:07;;;;;;;5.30;4.20;;;;;;;10.26;67.02;99099.59;6306971;22;20058;-77
2021/04/17 09:36:34;;;;;;;6.80;4.90;;;;;;;10.24;66.84;99085.69;6307941;22;20006;-77
2021/04/17 09:39:00;;;;;;;7.07;4.38;;;;;;;10.28;66.43;99088.63;6280077;22;20450;-77
2021/04/17 09:41:50;;;;;;;5.68;4.93;;;;;;;10.30;66.51;99081.94;6280226;22;20003;-77
2021/04/17 09:44:16;;;;;;;8.00;4.85;;;;;;;10.35;65.38;99076.59;6305943;22;19995;-77
2021/04/17 09:46:42;;;;;;;6.25;4.32;;;;;;;10.37;66.52;99071.78;6303356;22;20392;-77
2021/04/17 09:49:07;;;;;;;6.72;4.15;;;;;;;10.44;66.29;99060.00;6305079;22;19995;-77
2021/04/17 09:51:33;;;;;;;4.18;3.83;;;;;;;10.46;65.63;99058.66;6303468;22;20078;-77
2021/04/17 09:54:04;;;;;;;4.43;4.03;;;;;;;10.55;65.72;99051.63;6304446;22;20030;-76
2021/04/17 09:56:42;;;;;;;5.65;4.82;;;;;;;10.62;65.44;99042.50;6277820;22;20310;-78
2021/04/17 09:59:10;;;;;;;11.02;5.00;;;;;;;10.68;64.68;99049.44;6277420;22;19995;-76
2021/04/17 10:01:36;;;;;;;5.70;4.40;;;;;;;10.70;64.49;99056.09;6304755;22;20006;-79
2021/04/17 10:04:02;;;;;;;5.15;4.32;;;;;;;10.71;63.65;99049.69;6277484;22;20007;-78
2021/04/17 10:06:30;;;;;;;5.70;4.60;;;;;;;10.79;64.35;99050.19;6304560;22;20023;-77
2021/04/17 10:09:11;;;;;;;4.18;3.78;;;;;;;10.83;67.06;99038.66;6304357;22;19999;-77
2021/04/17 10:11:41;;;;;;;5.72;4.40;;;;;;;10.93;66.91;99037.00;6304912;22;20332;-77
2021/04/17 10:14:09;;;;;;;8.65;5.57;;;;;;;10.98;67.67;99035.06;6277178;22;20003;-77
2021/04/17 10:16:38;;;;;;;7.65;6.15;;;;;;;11.00;67.96;99029.44;6304871;22;20007;-76
2021/04/17 10:19:08;;;;;;;7.30;5.82;;;;;;;11.07;67.29;99037.97;6277116;22;20003;-79
2021/04/17 10:21:35;;;;;;;5.88;4.53;;;;;;;11.08;65.81;99030.72;6305536;22;19995;-78
2021/04/17 10:24:13;;;;;;;6.80;4.32;;;;;;;11.09;64.33;99025.09;6279098;22;20003;-78
2021/04/17 10:27:07;;;;;;;8.05;4.10;;;;;;;11.19;64.74;99034.91;6279660;22;20314;-76
2021/04/17 10:29:43;;;;;;;5.35;4.18;;;;;;;11.23;64.18;99022.59;6306879;22;20003;-76
2021/04/17 10:32:16;;;;;;;5.07;4.10;;;;;;;11.32;64.31;99012.84;6306569;22;19995;-77
2021/04/17 10:34:49;;;;;;;6.68;4.40;;;;;;;11.40;63.71;99003.44;6305384;22;20007;-76
2021/04/17 10:37:17;;;;;;;6.78;4.13;;;;;;;11.52;62.84;99013.75;6279603;22;20022;-76
2021/04/17 10:40:02;;;;;;;4.57;4.05;;;;;;;11.60;62.54;99015.03;6279333;22;20030;-75
2021/04/17 10:42:49;;;;;;;6.75;3.90;;;;;;;11.58;62.05;99006.47;6306585;22;20003;-76
2021/04/17 10:45:36;;;;;;;8.82;4.90;;;;;;;11.64;63.27;99008.00;6306335;22;20053;-76
2021/04/17 10:48:07;;;;;;;5.30;4.27;;;;;;;11.64;63.37;98999.97;6306206;22;20006;-75
2021/04/17 10:50:39;;;;;;;5.10;4.60;;;;;;;11.64;61.85;99006.09;6306411;22;20270;-76
2021/04/17 10:53:07;;;;;;;4.78;3.83;;;;;;;11.56;61.71;99005.94;6279098;22;19995;-76
2021/04/17 10:55:39;;;;;;;5.60;4.65;;;;;;;11.55;62.66;99007.81;6306861;22;20063;-75
2021/04/17 10:58:05;;;;;;;4.05;3.75;;;;;;;11.45;62.82;99006.03;6306118;22;19999;-75
2021/04/17 11:00:34;;;;;;;4.47;4.07;;;;;;;11.50;63.57;99008.66;6279199;22;20006;-77
2021/04/17 11:03:00;;;;;;;6.70;5.07;;;;;;;11.51;63.31;99006.78;6304432;22;20058;-77
2021/04/17 11:05:32;;;;;;;5.95;4.47;;;;;;;11.52;62.41;99013.75;6279423;22;20006;-77
2021/04/17 11:08:00;;;;;;;7.55;4.68;;;;;;;11.55;62.67;99015.88;6306483;22;20057;-77
2021/04/17 11:10:34;;;;;;;7.32;4.43;;;;;;;11.57;62.18;99020.94;6279500;22;20354;-77
2021/04/17 11:13:00;;;;;;;5.72;4.60;;;;;;;11.55;62.78;99010.50;6278983;22;20426;-76
2021/04/17 11:15:28;;;;;;;6.95;5.45;;;;;;;11.57;62.63;99003.00;6306336;22;19996;-77
2021/04/17 11:18:09;;;;;;;;;;;;;;;11.61;62.97;99005.88;6305157;22;20075;-77
2021/04/17 11:20:52;;;;;;;6.38;4.97;;;;;;;11.63;62.91;98999.19;6306533;22;19941;-76
2021/04/17 11:23:38;;;;;;;7.45;5.30;;;;;;;11.70;62.65;98990.78;6306484;22;19999;-76
2021/04/17 11:26:14;;;;;;;6.05;4.32;;;;;;;11.76;62.77;98986.97;6304738;22;20057;-76
2021/04/17 11:28:41;;;;;;;4.85;4.05;;;;;;;11.81;62.35;98981.53;6304794;22;20361;-77
2021/04/17 11:31:08;;;;;;;6.68;4.68;;;;;;;11.85;61.38;98979.91;6278711;22;20336;-77
2021/04/17 11:33:34;;;;;;;4.18;3.78;;;;;;;11.87;60.80;98976.16;6278260;22;20011;-77
2021/04/17 11:36:00;;;;;;;4.93;4.13;;;;;;;11.86;62.13;98978.03;6304525;22;20081;-77
2021/04/17 11:38:25;;;;;;;5.05;3.90;;;;;;;11.83;61.23;98971.34;6304616;22;20003;-77
2021/04/17 11:40:51;;;;;;;5.03;3.88;;;;;;;11.88;62.78;98969.69;6278650;22;20088;-77
2021/04/17 11:43:17;;;;;;;3.97;3.53;;;;;;;11.86;63.31;98961.94;6306335;22;19995;-77